sensor_id;sensor_type;location;lat;lon;timestamp;temperature;humidity
25280;DHT22;13225;47.804;12.116;2023-07-31T00:01:43;17.90;99.90
25280;DHT22;13225;47.804;12.116;2023-07-31T00:04:08;17.90;99.90
25280;DHT22;13225;47.804;12.116;2023-07-31T00:06:34;17.90;99.90
25280;DHT22;13225;47.804;12.116;2023-07-31T00:08:59;17.90;99.90
25280;DHT22;13225;47.804;12.116;2023-07-31T00:11:25;17.80;99.90
25280;DHT22;13225;47.804;12.116;2023-07-31T00:13:53;17.70;99.90
25280;DHT22;13225;47.804;12.116;2023-07-31T00:16:18;17.70;99.90
25280;DHT22;13225;47.804;12.116;2023-07-31T00:18:44;17.60;99.90
25280;DHT22;13225;47.804;12.116;2023-07-31T00:21:09;17.60;99.90
25280;DHT22;13225;47.804;12.116;2023-07-31T00:23:35;17.50;99.90
25280;DHT22;13225;47.804;12.116;2023-07-31T00:26:01;17.50;99.90
25280;DHT22;13225;47.804;12.116;2023-07-31T00:28:26;17.40;99.90
25280;DHT22;13225;47.804;12.116;2023-07-31T00:30:52;17.30;99.90
25280;DHT22;13225;47.804;12.116;2023-07-31T00:33:18;17.20;99.90
25280;DHT22;13225;47.804;12.116;2023-07-31T00:35:43;17.20;99.90
25280;DHT22;13225;47.804;12.116;2023-07-31T00:38:09;17.20;99.90
25280;DHT22;13225;47.804;12.116;2023-07-31T00:40:36;17.20;99.90
25280;DHT22;13225;47.804;12.116;2023-07-31T00:43:02;17.30;99.90
25280;DHT22;13225;47.804;12.116;2023-07-31T00:45:29;17.30;99.90
25280;DHT22;13225;47.804;12.116;2023-07-31T00:47:54;17.40;99.90
25280;DHT22;13225;47.804;12.116;2023-07-31T00:50:22;17.40;99.90
25280;DHT22;13225;47.804;12.116;2023-07-31T00:52:47;17.40;99.90
25280;DHT22;13225;47.804;12.116;2023-07-31T00:55:13;17.30;99.90
25280;DHT22;13225;47.804;12.116;2023-07-31T00:57:41;17.20;99.90
25280;DHT22;13225;47.804;12.116;2023-07-31T01:00:08;17.20;99.90
25280;DHT22;13225;47.804;12.116;2023-07-31T01:02:33;17.20;99.90
25280;DHT22;13225;47.804;12.116;2023-07-31T01:05:00;17.10;99.90
25280;DHT22;13225;47.804;12.116;2023-07-31T01:10:11;17.00;99.90
25280;DHT22;13225;47.804;12.116;2023-07-31T01:12:41;16.80;99.90
25280;DHT22;13225;47.804;12.116;2023-07-31T01:15:09;16.70;99.90
25280;DHT22;13225;47.804;12.116;2023-07-31T01:17:37;16.60;99.90
25280;DHT22;13225;47.804;12.116;2023-07-31T01:20:05;16.50;99.90
25280;DHT22;13225;47.804;12.116;2023-07-31T01:26:09;16.30;99.90
25280;DHT22;13225;47.804;12.116;2023-07-31T01:29:01;16.30;99.90
25280;DHT22;13225;47.804;12.116;2023-07-31T01:31:29;16.20;99.90
25280;DHT22;13225;47.804;12.116;2023-07-31T01:34:00;16.10;99.90
25280;DHT22;13225;47.804;12.116;2023-07-31T01:36:26;16.00;99.90
25280;DHT22;13225;47.804;12.116;2023-07-31T01:38:52;15.90;99.90
25280;DHT22;13225;47.804;12.116;2023-07-31T01:41:18;15.80;99.90
25280;DHT22;13225;47.804;12.116;2023-07-31T01:43:45;15.80;99.90
25280;DHT22;13225;47.804;12.116;2023-07-31T01:46:10;15.70;99.90
25280;DHT22;13225;47.804;12.116;2023-07-31T01:48:36;15.60;99.90
25280;DHT22;13225;47.804;12.116;2023-07-31T01:51:02;15.60;99.90
25280;DHT22;13225;47.804;12.116;2023-07-31T01:53:29;15.50;99.90
25280;DHT22;13225;47.804;12.116;2023-07-31T01:55:55;15.50;99.90
25280;DHT22;13225;47.804;12.116;2023-07-31T01:58:20;15.50;99.90
25280;DHT22;13225;47.804;12.116;2023-07-31T02:00:46;15.50;99.90
25280;DHT22;13225;47.804;12.116;2023-07-31T02:03:12;15.60;99.90
25280;DHT22;13225;47.804;12.116;2023-07-31T02:05:47;15.50;99.90
25280;DHT22;13225;47.804;12.116;2023-07-31T02:08:13;15.50;99.90
25280;DHT22;13225;47.804;12.116;2023-07-31T02:10:38;15.50;99.90
25280;DHT22;13225;47.804;12.116;2023-07-31T02:13:04;15.60;99.90
25280;DHT22;13225;47.804;12.116;2023-07-31T02:15:30;15.60;99.90
25280;DHT22;13225;47.804;12.116;2023-07-31T02:17:56;15.70;99.90
25280;DHT22;13225;47.804;12.116;2023-07-31T02:20:21;15.70;99.90
25280;DHT22;13225;47.804;12.116;2023-07-31T02:22:47;15.70;99.90
25280;DHT22;13225;47.804;12.116;2023-07-31T02:25:12;15.80;99.90
25280;DHT22;13225;47.804;12.116;2023-07-31T02:27:38;15.90;99.90
25280;DHT22;13225;47.804;12.116;2023-07-31T02:30:04;16.00;99.90
25280;DHT22;13225;47.804;12.116;2023-07-31T02:32:30;16.00;99.90
25280;DHT22;13225;47.804;12.116;2023-07-31T02:34:55;16.10;99.90
25280;DHT22;13225;47.804;12.116;2023-07-31T02:37:21;16.10;99.90
25280;DHT22;13225;47.804;12.116;2023-07-31T02:39:46;16.10;99.90
25280;DHT22;13225;47.804;12.116;2023-07-31T02:42:13;16.20;99.90
25280;DHT22;13225;47.804;12.116;2023-07-31T02:44:39;16.20;99.90
25280;DHT22;13225;47.804;12.116;2023-07-31T02:47:04;16.20;99.90
25280;DHT22;13225;47.804;12.116;2023-07-31T02:49:30;16.20;99.90
25280;DHT22;13225;47.804;12.116;2023-07-31T02:51:56;16.10;99.90
25280;DHT22;13225;47.804;12.116;2023-07-31T02:54:21;16.10;99.90
25280;DHT22;13225;47.804;12.116;2023-07-31T02:56:47;16.00;99.90
25280;DHT22;13225;47.804;12.116;2023-07-31T02:59:13;16.10;99.90
25280;DHT22;13225;47.804;12.116;2023-07-31T03:01:39;16.00;99.90
25280;DHT22;13225;47.804;12.116;2023-07-31T03:04:04;16.00;99.90
25280;DHT22;13225;47.804;12.116;2023-07-31T03:06:30;15.90;99.90
25280;DHT22;13225;47.804;12.116;2023-07-31T03:08:55;15.90;99.90
25280;DHT22;13225;47.804;12.116;2023-07-31T03:11:21;16.00;99.90
25280;DHT22;13225;47.804;12.116;2023-07-31T03:13:47;15.90;99.90
25280;DHT22;13225;47.804;12.116;2023-07-31T03:16:12;15.90;99.90
25280;DHT22;13225;47.804;12.116;2023-07-31T03:18:38;15.90;99.90
25280;DHT22;13225;47.804;12.116;2023-07-31T03:21:04;15.80;99.90
25280;DHT22;13225;47.804;12.116;2023-07-31T03:23:30;15.80;99.90
25280;DHT22;13225;47.804;12.116;2023-07-31T03:26:00;15.70;99.90
25280;DHT22;13225;47.804;12.116;2023-07-31T03:28:26;15.60;99.90
25280;DHT22;13225;47.804;12.116;2023-07-31T03:30:52;15.50;99.90
25280;DHT22;13225;47.804;12.116;2023-07-31T03:33:18;15.40;99.90
25280;DHT22;13225;47.804;12.116;2023-07-31T03:35:44;15.40;99.90
25280;DHT22;13225;47.804;12.116;2023-07-31T03:38:10;15.40;99.90
25280;DHT22;13225;47.804;12.116;2023-07-31T03:40:36;15.40;99.90
25280;DHT22;13225;47.804;12.116;2023-07-31T03:43:01;15.40;99.90
25280;DHT22;13225;47.804;12.116;2023-07-31T03:45:27;15.40;99.90
25280;DHT22;13225;47.804;12.116;2023-07-31T03:47:53;15.40;99.90
25280;DHT22;13225;47.804;12.116;2023-07-31T03:50:20;15.40;99.90
25280;DHT22;13225;47.804;12.116;2023-07-31T03:52:45;15.50;99.90
25280;DHT22;13225;47.804;12.116;2023-07-31T03:55:11;15.50;99.90
25280;DHT22;13225;47.804;12.116;2023-07-31T03:57:36;15.50;99.90
25280;DHT22;13225;47.804;12.116;2023-07-31T04:00:02;15.50;99.90
25280;DHT22;13225;47.804;12.116;2023-07-31T04:02:29;15.50;99.90
25280;DHT22;13225;47.804;12.116;2023-07-31T04:04:54;15.60;99.90
25280;DHT22;13225;47.804;12.116;2023-07-31T04:07:20;15.70;99.90
25280;DHT22;13225;47.804;12.116;2023-07-31T04:09:45;15.70;99.90
25280;DHT22;13225;47.804;12.116;2023-07-31T04:12:11;15.80;99.90
25280;DHT22;13225;47.804;12.116;2023-07-31T04:14:37;15.80;99.90
25280;DHT22;13225;47.804;12.116;2023-07-31T04:17:02;15.80;99.90
25280;DHT22;13225;47.804;12.116;2023-07-31T04:19:28;15.80;99.90
25280;DHT22;13225;47.804;12.116;2023-07-31T04:21:53;15.90;99.90
25280;DHT22;13225;47.804;12.116;2023-07-31T04:24:19;16.00;99.90
25280;DHT22;13225;47.804;12.116;2023-07-31T04:26:50;16.00;99.90
25280;DHT22;13225;47.804;12.116;2023-07-31T04:29:15;16.10;99.90
25280;DHT22;13225;47.804;12.116;2023-07-31T04:31:41;16.10;99.90
25280;DHT22;13225;47.804;12.116;2023-07-31T04:34:07;16.20;99.90
25280;DHT22;13225;47.804;12.116;2023-07-31T04:36:34;16.20;99.90
25280;DHT22;13225;47.804;12.116;2023-07-31T04:38:59;16.20;99.90
25280;DHT22;13225;47.804;12.116;2023-07-31T04:41:25;16.20;99.90
25280;DHT22;13225;47.804;12.116;2023-07-31T04:43:51;16.20;99.90
25280;DHT22;13225;47.804;12.116;2023-07-31T04:46:16;16.10;99.90
25280;DHT22;13225;47.804;12.116;2023-07-31T04:48:42;16.10;99.90
25280;DHT22;13225;47.804;12.116;2023-07-31T04:51:08;16.10;99.90
25280;DHT22;13225;47.804;12.116;2023-07-31T04:53:35;16.20;99.90
25280;DHT22;13225;47.804;12.116;2023-07-31T04:56:00;16.10;99.90
25280;DHT22;13225;47.804;12.116;2023-07-31T04:58:26;16.10;99.90
25280;DHT22;13225;47.804;12.116;2023-07-31T05:00:52;16.20;99.90
25280;DHT22;13225;47.804;12.116;2023-07-31T05:03:17;16.20;99.90
25280;DHT22;13225;47.804;12.116;2023-07-31T05:05:43;16.20;99.90
25280;DHT22;13225;47.804;12.116;2023-07-31T05:08:08;16.20;99.90
25280;DHT22;13225;47.804;12.116;2023-07-31T05:10:34;16.20;99.90
25280;DHT22;13225;47.804;12.116;2023-07-31T05:12:59;16.60;99.90
25280;DHT22;13225;47.804;12.116;2023-07-31T05:15:25;17.10;99.90
25280;DHT22;13225;47.804;12.116;2023-07-31T05:17:50;17.40;99.90
25280;DHT22;13225;47.804;12.116;2023-07-31T05:20:16;17.30;99.90
25280;DHT22;13225;47.804;12.116;2023-07-31T05:22:42;17.20;99.90
25280;DHT22;13225;47.804;12.116;2023-07-31T05:25:08;17.20;99.90
25280;DHT22;13225;47.804;12.116;2023-07-31T05:27:33;17.60;99.90
25280;DHT22;13225;47.804;12.116;2023-07-31T05:29:59;17.90;99.90
25280;DHT22;13225;47.804;12.116;2023-07-31T05:32:25;17.90;99.90
25280;DHT22;13225;47.804;12.116;2023-07-31T05:34:53;17.80;99.90
25280;DHT22;13225;47.804;12.116;2023-07-31T05:37:19;17.70;99.90
25280;DHT22;13225;47.804;12.116;2023-07-31T05:39:45;17.60;99.90
25280;DHT22;13225;47.804;12.116;2023-07-31T05:42:11;17.60;99.90
25280;DHT22;13225;47.804;12.116;2023-07-31T05:44:36;17.90;99.90
25280;DHT22;13225;47.804;12.116;2023-07-31T05:47:02;17.80;99.90
25280;DHT22;13225;47.804;12.116;2023-07-31T05:49:27;17.80;99.90
25280;DHT22;13225;47.804;12.116;2023-07-31T05:51:53;18.00;99.90
25280;DHT22;13225;47.804;12.116;2023-07-31T05:54:19;18.10;99.90
25280;DHT22;13225;47.804;12.116;2023-07-31T05:56:44;18.10;99.90
25280;DHT22;13225;47.804;12.116;2023-07-31T05:59:12;18.30;99.90
25280;DHT22;13225;47.804;12.116;2023-07-31T06:01:38;18.20;99.90
25280;DHT22;13225;47.804;12.116;2023-07-31T06:04:04;18.20;99.90
25280;DHT22;13225;47.804;12.116;2023-07-31T06:06:29;18.10;99.90
25280;DHT22;13225;47.804;12.116;2023-07-31T06:08:55;18.20;99.90
25280;DHT22;13225;47.804;12.116;2023-07-31T06:11:21;18.20;99.90
25280;DHT22;13225;47.804;12.116;2023-07-31T06:13:46;18.30;99.90
25280;DHT22;13225;47.804;12.116;2023-07-31T06:16:13;18.40;99.90
25280;DHT22;13225;47.804;12.116;2023-07-31T06:18:39;18.50;99.90
25280;DHT22;13225;47.804;12.116;2023-07-31T06:21:05;18.30;99.90
25280;DHT22;13225;47.804;12.116;2023-07-31T06:23:31;18.40;99.90
25280;DHT22;13225;47.804;12.116;2023-07-31T06:25:56;18.40;99.90
25280;DHT22;13225;47.804;12.116;2023-07-31T06:28:30;18.40;99.90
25280;DHT22;13225;47.804;12.116;2023-07-31T06:30:56;18.50;99.90
25280;DHT22;13225;47.804;12.116;2023-07-31T06:33:22;18.50;99.90
25280;DHT22;13225;47.804;12.116;2023-07-31T06:35:48;18.60;99.90
25280;DHT22;13225;47.804;12.116;2023-07-31T06:38:13;18.50;99.90
25280;DHT22;13225;47.804;12.116;2023-07-31T06:40:39;18.60;99.90
25280;DHT22;13225;47.804;12.116;2023-07-31T06:43:05;18.80;99.90
25280;DHT22;13225;47.804;12.116;2023-07-31T06:45:35;18.80;99.90
25280;DHT22;13225;47.804;12.116;2023-07-31T06:48:01;19.10;99.90
25280;DHT22;13225;47.804;12.116;2023-07-31T06:50:33;19.00;99.90
25280;DHT22;13225;47.804;12.116;2023-07-31T06:52:59;19.00;99.90
25280;DHT22;13225;47.804;12.116;2023-07-31T06:55:25;19.10;99.90
25280;DHT22;13225;47.804;12.116;2023-07-31T06:57:53;19.40;99.90
25280;DHT22;13225;47.804;12.116;2023-07-31T07:00:20;19.40;99.90
25280;DHT22;13225;47.804;12.116;2023-07-31T07:02:46;19.20;99.90
25280;DHT22;13225;47.804;12.116;2023-07-31T07:05:16;19.20;99.90
25280;DHT22;13225;47.804;12.116;2023-07-31T07:07:42;19.40;99.90
25280;DHT22;13225;47.804;12.116;2023-07-31T07:10:08;19.60;99.90
25280;DHT22;13225;47.804;12.116;2023-07-31T07:12:34;19.60;99.90
25280;DHT22;13225;47.804;12.116;2023-07-31T07:15:01;19.50;99.90
25280;DHT22;13225;47.804;12.116;2023-07-31T07:17:29;19.70;99.90
25280;DHT22;13225;47.804;12.116;2023-07-31T07:19:59;19.90;99.90
25280;DHT22;13225;47.804;12.116;2023-07-31T07:22:25;19.90;99.90
25280;DHT22;13225;47.804;12.116;2023-07-31T07:24:51;20.10;99.90
25280;DHT22;13225;47.804;12.116;2023-07-31T07:27:16;20.30;99.90
25280;DHT22;13225;47.804;12.116;2023-07-31T07:29:42;20.30;99.90
25280;DHT22;13225;47.804;12.116;2023-07-31T07:32:08;20.20;99.90
25280;DHT22;13225;47.804;12.116;2023-07-31T07:34:33;20.30;99.90
25280;DHT22;13225;47.804;12.116;2023-07-31T07:36:59;20.40;99.90
25280;DHT22;13225;47.804;12.116;2023-07-31T07:39:25;20.50;99.90
25280;DHT22;13225;47.804;12.116;2023-07-31T07:41:50;20.90;99.90
25280;DHT22;13225;47.804;12.116;2023-07-31T07:44:16;21.00;99.90
25280;DHT22;13225;47.804;12.116;2023-07-31T07:46:41;21.30;99.90
25280;DHT22;13225;47.804;12.116;2023-07-31T07:49:07;21.70;99.90
25280;DHT22;13225;47.804;12.116;2023-07-31T07:51:33;21.60;99.90
25280;DHT22;13225;47.804;12.116;2023-07-31T07:53:59;21.00;99.90
25280;DHT22;13225;47.804;12.116;2023-07-31T07:56:28;20.70;99.90
25280;DHT22;13225;47.804;12.116;2023-07-31T07:58:54;20.70;99.90
25280;DHT22;13225;47.804;12.116;2023-07-31T08:01:20;20.90;99.90
25280;DHT22;13225;47.804;12.116;2023-07-31T08:03:46;20.90;99.90
25280;DHT22;13225;47.804;12.116;2023-07-31T08:06:11;20.80;99.90
25280;DHT22;13225;47.804;12.116;2023-07-31T08:08:37;20.90;99.90
25280;DHT22;13225;47.804;12.116;2023-07-31T08:11:03;21.10;99.90
25280;DHT22;13225;47.804;12.116;2023-07-31T08:13:29;21.50;99.90
25280;DHT22;13225;47.804;12.116;2023-07-31T08:15:55;21.80;99.90
25280;DHT22;13225;47.804;12.116;2023-07-31T08:18:20;21.70;99.90
25280;DHT22;13225;47.804;12.116;2023-07-31T08:20:46;21.50;99.90
25280;DHT22;13225;47.804;12.116;2023-07-31T08:23:12;21.50;99.90
25280;DHT22;13225;47.804;12.116;2023-07-31T08:25:38;21.70;99.90
25280;DHT22;13225;47.804;12.116;2023-07-31T08:28:04;21.70;99.90
25280;DHT22;13225;47.804;12.116;2023-07-31T08:30:30;21.90;99.90
25280;DHT22;13225;47.804;12.116;2023-07-31T08:32:56;22.10;99.90
25280;DHT22;13225;47.804;12.116;2023-07-31T08:35:21;22.40;99.90
25280;DHT22;13225;47.804;12.116;2023-07-31T08:37:47;22.40;99.90
25280;DHT22;13225;47.804;12.116;2023-07-31T08:40:12;22.70;99.90
25280;DHT22;13225;47.804;12.116;2023-07-31T08:42:46;22.30;99.90
25280;DHT22;13225;47.804;12.116;2023-07-31T08:45:19;22.20;99.90
25280;DHT22;13225;47.804;12.116;2023-07-31T08:47:49;22.30;99.90
25280;DHT22;13225;47.804;12.116;2023-07-31T08:50:17;22.40;99.90
25280;DHT22;13225;47.804;12.116;2023-07-31T08:52:45;22.70;99.90
25280;DHT22;13225;47.804;12.116;2023-07-31T08:55:11;22.90;99.90
25280;DHT22;13225;47.804;12.116;2023-07-31T09:00:06;22.30;99.90
25280;DHT22;13225;47.804;12.116;2023-07-31T09:02:44;22.60;99.90
25280;DHT22;13225;47.804;12.116;2023-07-31T09:05:11;22.70;99.90
25280;DHT22;13225;47.804;12.116;2023-07-31T09:07:37;22.70;99.90
25280;DHT22;13225;47.804;12.116;2023-07-31T09:10:04;22.70;99.90
25280;DHT22;13225;47.804;12.116;2023-07-31T09:12:30;22.80;99.90
25280;DHT22;13225;47.804;12.116;2023-07-31T09:14:58;23.00;99.90
25280;DHT22;13225;47.804;12.116;2023-07-31T09:17:34;22.90;99.90
25280;DHT22;13225;47.804;12.116;2023-07-31T09:20:18;22.90;99.90
25280;DHT22;13225;47.804;12.116;2023-07-31T09:22:44;23.10;99.90
25280;DHT22;13225;47.804;12.116;2023-07-31T09:25:21;23.10;99.90
25280;DHT22;13225;47.804;12.116;2023-07-31T09:27:52;23.30;99.90
25280;DHT22;13225;47.804;12.116;2023-07-31T09:30:18;23.30;99.90
25280;DHT22;13225;47.804;12.116;2023-07-31T09:32:45;23.40;99.90
25280;DHT22;13225;47.804;12.116;2023-07-31T09:35:22;23.60;99.90
25280;DHT22;13225;47.804;12.116;2023-07-31T09:37:53;23.80;99.90
25280;DHT22;13225;47.804;12.116;2023-07-31T09:40:48;23.90;99.90
25280;DHT22;13225;47.804;12.116;2023-07-31T09:43:18;24.00;99.90
25280;DHT22;13225;47.804;12.116;2023-07-31T09:45:45;24.30;99.90
25280;DHT22;13225;47.804;12.116;2023-07-31T09:48:13;24.30;99.90
25280;DHT22;13225;47.804;12.116;2023-07-31T09:50:42;24.10;99.90
25280;DHT22;13225;47.804;12.116;2023-07-31T09:53:09;24.00;99.90
25280;DHT22;13225;47.804;12.116;2023-07-31T09:55:35;23.90;99.90
25280;DHT22;13225;47.804;12.116;2023-07-31T09:58:07;24.10;99.90
25280;DHT22;13225;47.804;12.116;2023-07-31T10:00:33;24.00;99.90
25280;DHT22;13225;47.804;12.116;2023-07-31T10:03:00;23.90;99.90
25280;DHT22;13225;47.804;12.116;2023-07-31T10:05:31;24.10;99.90
25280;DHT22;13225;47.804;12.116;2023-07-31T10:07:59;23.70;99.90
25280;DHT22;13225;47.804;12.116;2023-07-31T10:10:25;23.60;99.90
25280;DHT22;13225;47.804;12.116;2023-07-31T10:12:53;23.70;99.90
25280;DHT22;13225;47.804;12.116;2023-07-31T10:15:19;23.10;99.90
25280;DHT22;13225;47.804;12.116;2023-07-31T10:17:49;23.20;99.90
25280;DHT22;13225;47.804;12.116;2023-07-31T10:20:16;23.30;99.90
25280;DHT22;13225;47.804;12.116;2023-07-31T10:22:45;23.20;99.90
25280;DHT22;13225;47.804;12.116;2023-07-31T10:25:12;22.90;99.90
25280;DHT22;13225;47.804;12.116;2023-07-31T10:27:41;22.90;99.90
25280;DHT22;13225;47.804;12.116;2023-07-31T10:30:13;22.70;99.90
25280;DHT22;13225;47.804;12.116;2023-07-31T10:32:44;23.10;99.90
25280;DHT22;13225;47.804;12.116;2023-07-31T10:35:11;23.30;99.90
25280;DHT22;13225;47.804;12.116;2023-07-31T10:37:40;23.40;99.90
25280;DHT22;13225;47.804;12.116;2023-07-31T10:43:03;23.40;99.90
25280;DHT22;13225;47.804;12.116;2023-07-31T10:45:36;23.50;99.90
25280;DHT22;13225;47.804;12.116;2023-07-31T10:48:12;23.70;99.90
25280;DHT22;13225;47.804;12.116;2023-07-31T10:50:45;23.80;99.90
25280;DHT22;13225;47.804;12.116;2023-07-31T10:53:23;23.90;99.90
25280;DHT22;13225;47.804;12.116;2023-07-31T10:55:49;23.40;99.90
25280;DHT22;13225;47.804;12.116;2023-07-31T10:58:19;23.60;99.90
25280;DHT22;13225;47.804;12.116;2023-07-31T11:00:45;23.70;99.90
25280;DHT22;13225;47.804;12.116;2023-07-31T11:03:15;23.80;99.90
25280;DHT22;13225;47.804;12.116;2023-07-31T11:08:24;23.90;99.90
25280;DHT22;13225;47.804;12.116;2023-07-31T11:13:32;24.10;99.90
25280;DHT22;13225;47.804;12.116;2023-07-31T11:15:58;23.80;99.90
25280;DHT22;13225;47.804;12.116;2023-07-31T11:18:26;23.60;99.90
25280;DHT22;13225;47.804;12.116;2023-07-31T11:20:52;23.80;99.90
25280;DHT22;13225;47.804;12.116;2023-07-31T11:23:19;23.70;99.90
25280;DHT22;13225;47.804;12.116;2023-07-31T11:25:45;24.00;99.90
25280;DHT22;13225;47.804;12.116;2023-07-31T11:28:15;24.50;99.90
25280;DHT22;13225;47.804;12.116;2023-07-31T11:30:43;24.50;99.90
25280;DHT22;13225;47.804;12.116;2023-07-31T11:33:10;24.40;99.90
25280;DHT22;13225;47.804;12.116;2023-07-31T11:35:43;24.80;99.90
25280;DHT22;13225;47.804;12.116;2023-07-31T11:38:11;24.60;99.90
25280;DHT22;13225;47.804;12.116;2023-07-31T11:40:44;25.00;99.90
25280;DHT22;13225;47.804;12.116;2023-07-31T11:43:10;25.60;99.90
25280;DHT22;13225;47.804;12.116;2023-07-31T11:45:40;25.70;99.90
25280;DHT22;13225;47.804;12.116;2023-07-31T11:48:05;25.80;99.90
25280;DHT22;13225;47.804;12.116;2023-07-31T11:50:33;25.10;99.90
25280;DHT22;13225;47.804;12.116;2023-07-31T11:53:04;25.10;99.90
25280;DHT22;13225;47.804;12.116;2023-07-31T11:55:31;25.30;99.90
25280;DHT22;13225;47.804;12.116;2023-07-31T11:57:57;25.40;99.90
25280;DHT22;13225;47.804;12.116;2023-07-31T12:00:25;24.90;99.90
25280;DHT22;13225;47.804;12.116;2023-07-31T12:02:51;25.30;99.90
25280;DHT22;13225;47.804;12.116;2023-07-31T12:05:17;25.70;99.90
25280;DHT22;13225;47.804;12.116;2023-07-31T12:07:49;26.00;99.90
25280;DHT22;13225;47.804;12.116;2023-07-31T12:10:29;26.30;99.90
25280;DHT22;13225;47.804;12.116;2023-07-31T12:13:06;25.70;99.90
25280;DHT22;13225;47.804;12.116;2023-07-31T12:15:44;25.60;99.90
25280;DHT22;13225;47.804;12.116;2023-07-31T12:18:10;24.80;99.90
25280;DHT22;13225;47.804;12.116;2023-07-31T12:20:43;25.70;99.90
25280;DHT22;13225;47.804;12.116;2023-07-31T12:23:17;26.10;99.90
25280;DHT22;13225;47.804;12.116;2023-07-31T12:25:43;26.10;99.90
25280;DHT22;13225;47.804;12.116;2023-07-31T12:28:09;26.40;99.90
25280;DHT22;13225;47.804;12.116;2023-07-31T12:30:39;26.80;99.90
25280;DHT22;13225;47.804;12.116;2023-07-31T12:33:10;27.00;99.90
25280;DHT22;13225;47.804;12.116;2023-07-31T12:35:38;27.30;99.90
25280;DHT22;13225;47.804;12.116;2023-07-31T12:38:06;27.10;99.90
25280;DHT22;13225;47.804;12.116;2023-07-31T12:40:32;27.50;99.90
25280;DHT22;13225;47.804;12.116;2023-07-31T12:43:00;27.60;99.90
25280;DHT22;13225;47.804;12.116;2023-07-31T12:45:26;28.20;99.90
25280;DHT22;13225;47.804;12.116;2023-07-31T12:47:52;28.30;98.20
25280;DHT22;13225;47.804;12.116;2023-07-31T12:50:17;28.60;97.20
25280;DHT22;13225;47.804;12.116;2023-07-31T12:52:43;28.90;98.60
25280;DHT22;13225;47.804;12.116;2023-07-31T12:55:09;28.10;98.70
25280;DHT22;13225;47.804;12.116;2023-07-31T12:57:36;29.20;97.20
25280;DHT22;13225;47.804;12.116;2023-07-31T13:00:02;29.30;95.20
25280;DHT22;13225;47.804;12.116;2023-07-31T13:02:28;29.20;95.90
25280;DHT22;13225;47.804;12.116;2023-07-31T13:04:54;27.80;97.30
25280;DHT22;13225;47.804;12.116;2023-07-31T13:07:22;28.80;98.80
25280;DHT22;13225;47.804;12.116;2023-07-31T13:09:48;29.60;96.10
25280;DHT22;13225;47.804;12.116;2023-07-31T13:12:13;30.00;96.70
25280;DHT22;13225;47.804;12.116;2023-07-31T13:14:39;30.40;93.20
25280;DHT22;13225;47.804;12.116;2023-07-31T13:17:04;30.00;94.10
25280;DHT22;13225;47.804;12.116;2023-07-31T13:19:30;29.80;96.30
25280;DHT22;13225;47.804;12.116;2023-07-31T13:21:56;30.70;93.40
25280;DHT22;13225;47.804;12.116;2023-07-31T13:24:21;30.50;92.70
25280;DHT22;13225;47.804;12.116;2023-07-31T13:26:47;29.70;94.10
25280;DHT22;13225;47.804;12.116;2023-07-31T13:29:12;29.40;93.20
25280;DHT22;13225;47.804;12.116;2023-07-31T13:31:38;29.30;93.80
25280;DHT22;13225;47.804;12.116;2023-07-31T13:34:03;29.10;94.20
25280;DHT22;13225;47.804;12.116;2023-07-31T13:36:29;29.00;94.70
25280;DHT22;13225;47.804;12.116;2023-07-31T13:38:54;28.80;93.80
25280;DHT22;13225;47.804;12.116;2023-07-31T13:41:20;28.90;94.50
25280;DHT22;13225;47.804;12.116;2023-07-31T13:43:46;28.90;93.60
25280;DHT22;13225;47.804;12.116;2023-07-31T13:46:11;28.80;93.40
25280;DHT22;13225;47.804;12.116;2023-07-31T13:48:37;28.40;94.50
25280;DHT22;13225;47.804;12.116;2023-07-31T13:51:03;28.30;94.20
25280;DHT22;13225;47.804;12.116;2023-07-31T13:53:28;28.30;94.90
25280;DHT22;13225;47.804;12.116;2023-07-31T13:55:54;28.80;94.40
25280;DHT22;13225;47.804;12.116;2023-07-31T13:58:20;29.30;93.80
25280;DHT22;13225;47.804;12.116;2023-07-31T14:00:46;29.20;92.60
25280;DHT22;13225;47.804;12.116;2023-07-31T14:03:12;27.90;94.00
25280;DHT22;13225;47.804;12.116;2023-07-31T14:05:37;28.70;93.50
25280;DHT22;13225;47.804;12.116;2023-07-31T14:08:03;29.30;93.10
25280;DHT22;13225;47.804;12.116;2023-07-31T14:10:29;29.90;92.50
25280;DHT22;13225;47.804;12.116;2023-07-31T14:12:54;30.50;92.60
25280;DHT22;13225;47.804;12.116;2023-07-31T14:15:20;30.40;92.40
25280;DHT22;13225;47.804;12.116;2023-07-31T14:17:46;30.10;92.00
25280;DHT22;13225;47.804;12.116;2023-07-31T14:20:11;30.60;92.50
25280;DHT22;13225;47.804;12.116;2023-07-31T14:22:37;31.00;91.20
25280;DHT22;13225;47.804;12.116;2023-07-31T14:25:03;31.50;91.20
25280;DHT22;13225;47.804;12.116;2023-07-31T14:27:29;30.90;91.20
25280;DHT22;13225;47.804;12.116;2023-07-31T14:29:55;31.10;91.80
25280;DHT22;13225;47.804;12.116;2023-07-31T14:32:22;31.40;92.80
25280;DHT22;13225;47.804;12.116;2023-07-31T14:34:50;31.80;90.70
25280;DHT22;13225;47.804;12.116;2023-07-31T14:37:16;32.70;90.20
25280;DHT22;13225;47.804;12.116;2023-07-31T14:39:41;33.00;90.00
25280;DHT22;13225;47.804;12.116;2023-07-31T14:42:08;32.80;88.10
25280;DHT22;13225;47.804;12.116;2023-07-31T14:44:34;33.50;81.60
25280;DHT22;13225;47.804;12.116;2023-07-31T14:46:59;33.30;84.00
25280;DHT22;13225;47.804;12.116;2023-07-31T14:49:25;33.40;83.10
25280;DHT22;13225;47.804;12.116;2023-07-31T14:51:52;32.30;84.20
25280;DHT22;13225;47.804;12.116;2023-07-31T14:54:18;31.50;81.90
25280;DHT22;13225;47.804;12.116;2023-07-31T14:56:43;31.20;85.70
25280;DHT22;13225;47.804;12.116;2023-07-31T14:59:09;31.50;87.40
25280;DHT22;13225;47.804;12.116;2023-07-31T15:01:36;30.80;88.50
25280;DHT22;13225;47.804;12.116;2023-07-31T15:04:02;30.90;90.90
25280;DHT22;13225;47.804;12.116;2023-07-31T15:06:28;29.70;91.00
25280;DHT22;13225;47.804;12.116;2023-07-31T15:08:53;30.00;91.00
25280;DHT22;13225;47.804;12.116;2023-07-31T15:11:19;29.60;90.90
25280;DHT22;13225;47.804;12.116;2023-07-31T15:13:44;29.60;92.40
25280;DHT22;13225;47.804;12.116;2023-07-31T15:16:10;30.10;90.60
25280;DHT22;13225;47.804;12.116;2023-07-31T15:18:36;30.20;90.30
25280;DHT22;13225;47.804;12.116;2023-07-31T15:21:01;30.60;85.60
25280;DHT22;13225;47.804;12.116;2023-07-31T15:23:27;31.40;83.40
25280;DHT22;13225;47.804;12.116;2023-07-31T15:25:53;31.30;83.40
25280;DHT22;13225;47.804;12.116;2023-07-31T15:28:18;30.70;87.70
25280;DHT22;13225;47.804;12.116;2023-07-31T15:30:44;30.60;84.70